sensor_id;sensor_type;location;lat;lon;timestamp;temperature;humidity
12557;DHT22;6344;49.932;8.308;2023-06-10T00:01:24;18.10;1.00
12557;DHT22;6344;49.932;8.308;2023-06-10T00:03:53;18.00;99.90
12557;DHT22;6344;49.932;8.308;2023-06-10T00:06:19;18.00;99.90
12557;DHT22;6344;49.932;8.308;2023-06-10T00:08:49;18.00;99.90
12557;DHT22;6344;49.932;8.308;2023-06-10T00:11:16;17.90;99.90
12557;DHT22;6344;49.932;8.308;2023-06-10T00:13:43;17.80;1.00
12557;DHT22;6344;49.932;8.308;2023-06-10T00:16:11;17.80;1.00
12557;DHT22;6344;49.932;8.308;2023-06-10T00:18:38;17.80;99.90
12557;DHT22;6344;49.932;8.308;2023-06-10T00:21:04;17.70;1.00
12557;DHT22;6344;49.932;8.308;2023-06-10T00:23:31;17.70;1.00
12557;DHT22;6344;49.932;8.308;2023-06-10T00:26:03;17.70;99.90
12557;DHT22;6344;49.932;8.308;2023-06-10T00:28:29;17.70;1.00
12557;DHT22;6344;49.932;8.308;2023-06-10T00:30:56;17.70;99.90
12557;DHT22;6344;49.932;8.308;2023-06-10T00:33:24;17.80;99.90
12557;DHT22;6344;49.932;8.308;2023-06-10T00:35:50;17.80;99.90
12557;DHT22;6344;49.932;8.308;2023-06-10T00:38:17;17.70;1.00
12557;DHT22;6344;49.932;8.308;2023-06-10T00:40:44;17.60;99.90
12557;DHT22;6344;49.932;8.308;2023-06-10T00:43:10;17.70;1.00
12557;DHT22;6344;49.932;8.308;2023-06-10T00:45:37;17.60;99.90
12557;DHT22;6344;49.932;8.308;2023-06-10T00:48:04;17.50;1.00
12557;DHT22;6344;49.932;8.308;2023-06-10T00:50:32;17.50;99.90
12557;DHT22;6344;49.932;8.308;2023-06-10T00:53:00;17.40;48.60
12557;DHT22;6344;49.932;8.308;2023-06-10T00:55:28;17.50;1.00
12557;DHT22;6344;49.932;8.308;2023-06-10T00:57:54;17.50;99.90
12557;DHT22;6344;49.932;8.308;2023-06-10T01:00:21;17.50;1.00
12557;DHT22;6344;49.932;8.308;2023-06-10T01:02:48;17.40;99.90
12557;DHT22;6344;49.932;8.308;2023-06-10T01:05:17;17.30;99.90
12557;DHT22;6344;49.932;8.308;2023-06-10T01:07:50;17.40;1.00
12557;DHT22;6344;49.932;8.308;2023-06-10T01:10:26;17.40;1.00
12557;DHT22;6344;49.932;8.308;2023-06-10T01:12:59;17.40;99.90
12557;DHT22;6344;49.932;8.308;2023-06-10T01:15:28;17.30;20.90
12557;DHT22;6344;49.932;8.308;2023-06-10T01:17:56;17.30;99.90
12557;DHT22;6344;49.932;8.308;2023-06-10T01:20:24;17.20;36.00
12557;DHT22;6344;49.932;8.308;2023-06-10T01:22:53;17.10;74.50
12557;DHT22;6344;49.932;8.308;2023-06-10T01:25:21;17.10;99.90
12557;DHT22;6344;49.932;8.308;2023-06-10T01:27:54;17.10;99.90
12557;DHT22;6344;49.932;8.308;2023-06-10T01:30:28;17.00;23.80
12557;DHT22;6344;49.932;8.308;2023-06-10T01:32:59;17.10;99.90
12557;DHT22;6344;49.932;8.308;2023-06-10T01:35:29;17.00;99.90
12557;DHT22;6344;49.932;8.308;2023-06-10T01:37:58;17.00;99.90
12557;DHT22;6344;49.932;8.308;2023-06-10T01:40:26;17.00;99.90
12557;DHT22;6344;49.932;8.308;2023-06-10T01:42:54;16.90;99.90
12557;DHT22;6344;49.932;8.308;2023-06-10T01:45:20;16.90;99.90
12557;DHT22;6344;49.932;8.308;2023-06-10T01:47:47;16.80;99.90
12557;DHT22;6344;49.932;8.308;2023-06-10T01:50:14;16.70;99.90
12557;DHT22;6344;49.932;8.308;2023-06-10T01:52:41;16.60;99.90
12557;DHT22;6344;49.932;8.308;2023-06-10T01:55:09;16.60;99.90
12557;DHT22;6344;49.932;8.308;2023-06-10T01:57:36;16.70;99.90
12557;DHT22;6344;49.932;8.308;2023-06-10T02:00:03;16.70;99.90
12557;DHT22;6344;49.932;8.308;2023-06-10T02:02:30;16.80;99.90
12557;DHT22;6344;49.932;8.308;2023-06-10T02:04:57;16.70;99.90
12557;DHT22;6344;49.932;8.308;2023-06-10T02:07:23;16.70;99.90
12557;DHT22;6344;49.932;8.308;2023-06-10T02:09:50;16.70;99.90
12557;DHT22;6344;49.932;8.308;2023-06-10T02:12:18;16.80;99.90
12557;DHT22;6344;49.932;8.308;2023-06-10T02:14:45;16.60;99.90
12557;DHT22;6344;49.932;8.308;2023-06-10T02:17:11;16.60;99.90
12557;DHT22;6344;49.932;8.308;2023-06-10T02:19:40;16.60;99.90
12557;DHT22;6344;49.932;8.308;2023-06-10T02:22:08;16.60;99.90
12557;DHT22;6344;49.932;8.308;2023-06-10T02:24:35;16.60;99.90
12557;DHT22;6344;49.932;8.308;2023-06-10T02:27:03;16.50;99.90
12557;DHT22;6344;49.932;8.308;2023-06-10T02:29:33;16.40;99.90
12557;DHT22;6344;49.932;8.308;2023-06-10T02:31:59;16.40;99.90
12557;DHT22;6344;49.932;8.308;2023-06-10T02:34:26;16.40;99.90
12557;DHT22;6344;49.932;8.308;2023-06-10T02:36:53;16.40;99.90
12557;DHT22;6344;49.932;8.308;2023-06-10T02:39:19;16.50;99.90
12557;DHT22;6344;49.932;8.308;2023-06-10T02:41:46;16.30;99.90
12557;DHT22;6344;49.932;8.308;2023-06-10T02:44:13;16.30;99.90
12557;DHT22;6344;49.932;8.308;2023-06-10T02:46:41;16.40;99.90
12557;DHT22;6344;49.932;8.308;2023-06-10T02:49:07;16.50;99.90
12557;DHT22;6344;49.932;8.308;2023-06-10T02:51:34;16.40;99.90
12557;DHT22;6344;49.932;8.308;2023-06-10T02:54:01;16.30;99.90
12557;DHT22;6344;49.932;8.308;2023-06-10T02:56:27;16.30;99.90
12557;DHT22;6344;49.932;8.308;2023-06-10T02:58:54;16.30;99.90
12557;DHT22;6344;49.932;8.308;2023-06-10T03:01:21;16.30;99.90
12557;DHT22;6344;49.932;8.308;2023-06-10T03:03:49;16.40;99.90
12557;DHT22;6344;49.932;8.308;2023-06-10T03:06:16;16.20;99.90
12557;DHT22;6344;49.932;8.308;2023-06-10T03:08:43;16.10;99.90
12557;DHT22;6344;49.932;8.308;2023-06-10T03:11:11;16.10;99.90
12557;DHT22;6344;49.932;8.308;2023-06-10T03:13:38;16.10;99.90
12557;DHT22;6344;49.932;8.308;2023-06-10T03:16:05;16.10;99.90
12557;DHT22;6344;49.932;8.308;2023-06-10T03:18:33;16.00;99.90
12557;DHT22;6344;49.932;8.308;2023-06-10T03:21:01;16.00;99.90
12557;DHT22;6344;49.932;8.308;2023-06-10T03:23:28;16.00;99.90
12557;DHT22;6344;49.932;8.308;2023-06-10T03:25:55;16.00;99.90
12557;DHT22;6344;49.932;8.308;2023-06-10T03:28:21;15.90;99.90
12557;DHT22;6344;49.932;8.308;2023-06-10T03:30:48;15.90;99.90
12557;DHT22;6344;49.932;8.308;2023-06-10T03:33:15;15.90;99.90
12557;DHT22;6344;49.932;8.308;2023-06-10T03:35:41;15.90;99.90
12557;DHT22;6344;49.932;8.308;2023-06-10T03:38:09;16.00;99.90
12557;DHT22;6344;49.932;8.308;2023-06-10T03:40:36;15.90;99.90
12557;DHT22;6344;49.932;8.308;2023-06-10T03:43:02;15.90;99.90
12557;DHT22;6344;49.932;8.308;2023-06-10T03:45:29;15.90;99.90
12557;DHT22;6344;49.932;8.308;2023-06-10T03:47:57;16.00;99.90
12557;DHT22;6344;49.932;8.308;2023-06-10T03:50:24;16.00;99.90
12557;DHT22;6344;49.932;8.308;2023-06-10T03:52:51;16.10;99.90
12557;DHT22;6344;49.932;8.308;2023-06-10T03:55:19;16.10;99.90
12557;DHT22;6344;49.932;8.308;2023-06-10T03:57:47;16.10;99.90
12557;DHT22;6344;49.932;8.308;2023-06-10T04:00:14;16.30;99.90
12557;DHT22;6344;49.932;8.308;2023-06-10T04:02:41;16.50;99.90
12557;DHT22;6344;49.932;8.308;2023-06-10T04:05:11;16.70;99.90
12557;DHT22;6344;49.932;8.308;2023-06-10T04:07:37;16.70;99.90
12557;DHT22;6344;49.932;8.308;2023-06-10T04:10:07;16.70;99.90
12557;DHT22;6344;49.932;8.308;2023-06-10T04:12:35;16.70;99.90
12557;DHT22;6344;49.932;8.308;2023-06-10T04:15:02;16.70;99.90
12557;DHT22;6344;49.932;8.308;2023-06-10T04:17:29;16.90;99.90
12557;DHT22;6344;49.932;8.308;2023-06-10T04:19:56;17.00;99.90
12557;DHT22;6344;49.932;8.308;2023-06-10T04:22:23;17.20;99.90
12557;DHT22;6344;49.932;8.308;2023-06-10T04:24:50;17.30;99.90
12557;DHT22;6344;49.932;8.308;2023-06-10T04:27:17;17.40;94.00
12557;DHT22;6344;49.932;8.308;2023-06-10T04:29:45;17.50;99.90
12557;DHT22;6344;49.932;8.308;2023-06-10T04:32:11;17.60;99.90
12557;DHT22;6344;49.932;8.308;2023-06-10T04:34:38;17.70;99.90
12557;DHT22;6344;49.932;8.308;2023-06-10T04:37:05;17.80;95.30
12557;DHT22;6344;49.932;8.308;2023-06-10T04:39:32;18.00;52.60
12557;DHT22;6344;49.932;8.308;2023-06-10T04:41:59;18.20;22.70
12557;DHT22;6344;49.932;8.308;2023-06-10T04:44:26;18.40;27.60
12557;DHT22;6344;49.932;8.308;2023-06-10T04:46:54;18.70;1.00
12557;DHT22;6344;49.932;8.308;2023-06-10T04:49:21;19.00;1.00
12557;DHT22;6344;49.932;8.308;2023-06-10T04:51:47;19.20;1.00
12557;DHT22;6344;49.932;8.308;2023-06-10T04:54:14;19.40;1.00
12557;DHT22;6344;49.932;8.308;2023-06-10T04:56:41;19.60;1.00
12557;DHT22;6344;49.932;8.308;2023-06-10T04:59:07;19.70;1.00
12557;DHT22;6344;49.932;8.308;2023-06-10T05:01:34;19.70;1.00
12557;DHT22;6344;49.932;8.308;2023-06-10T05:04:02;19.90;1.00
12557;DHT22;6344;49.932;8.308;2023-06-10T05:06:29;19.90;1.00
12557;DHT22;6344;49.932;8.308;2023-06-10T05:08:56;20.10;1.00
12557;DHT22;6344;49.932;8.308;2023-06-10T05:11:23;20.20;1.00
12557;DHT22;6344;49.932;8.308;2023-06-10T05:13:49;20.50;1.00
12557;DHT22;6344;49.932;8.308;2023-06-10T05:16:16;20.50;1.00
12557;DHT22;6344;49.932;8.308;2023-06-10T05:18:42;20.70;1.00
12557;DHT22;6344;49.932;8.308;2023-06-10T05:21:10;20.80;1.00
12557;DHT22;6344;49.932;8.308;2023-06-10T05:23:37;20.90;1.00
12557;DHT22;6344;49.932;8.308;2023-06-10T05:26:03;20.80;1.00
12557;DHT22;6344;49.932;8.308;2023-06-10T05:28:30;20.90;1.00
12557;DHT22;6344;49.932;8.308;2023-06-10T05:30:57;21.10;1.00
12557;DHT22;6344;49.932;8.308;2023-06-10T05:33:23;21.20;1.00
12557;DHT22;6344;49.932;8.308;2023-06-10T05:35:50;21.20;1.00
12557;DHT22;6344;49.932;8.308;2023-06-10T05:38:18;21.30;1.00
12557;DHT22;6344;49.932;8.308;2023-06-10T05:40:46;21.40;1.00
12557;DHT22;6344;49.932;8.308;2023-06-10T05:43:12;21.60;1.00
12557;DHT22;6344;49.932;8.308;2023-06-10T05:45:39;21.70;1.00
12557;DHT22;6344;49.932;8.308;2023-06-10T05:48:06;21.90;1.00
12557;DHT22;6344;49.932;8.308;2023-06-10T05:50:34;21.90;1.00
12557;DHT22;6344;49.932;8.308;2023-06-10T05:53:04;22.10;1.00
12557;DHT22;6344;49.932;8.308;2023-06-10T05:55:33;22.00;1.00
12557;DHT22;6344;49.932;8.308;2023-06-10T05:58:00;22.30;1.00
12557;DHT22;6344;49.932;8.308;2023-06-10T06:00:27;22.60;1.00
12557;DHT22;6344;49.932;8.308;2023-06-10T06:02:54;22.70;1.00
12557;DHT22;6344;49.932;8.308;2023-06-10T06:05:21;23.00;1.00
12557;DHT22;6344;49.932;8.308;2023-06-10T06:07:47;23.40;1.00
12557;DHT22;6344;49.932;8.308;2023-06-10T06:10:14;23.80;1.00
12557;DHT22;6344;49.932;8.308;2023-06-10T06:12:42;24.10;1.00
12557;DHT22;6344;49.932;8.308;2023-06-10T06:15:10;24.20;1.00
12557;DHT22;6344;49.932;8.308;2023-06-10T06:17:36;24.50;1.00
12557;DHT22;6344;49.932;8.308;2023-06-10T06:20:04;24.60;1.00
12557;DHT22;6344;49.932;8.308;2023-06-10T06:22:31;24.90;1.00
12557;DHT22;6344;49.932;8.308;2023-06-10T06:24:57;24.70;10.60
12557;DHT22;6344;49.932;8.308;2023-06-10T06:27:24;24.70;99.90
12557;DHT22;6344;49.932;8.308;2023-06-10T06:29:52;25.00;99.90
12557;DHT22;6344;49.932;8.308;2023-06-10T06:32:19;25.40;1.00
12557;DHT22;6344;49.932;8.308;2023-06-10T06:34:46;25.60;93.20
12557;DHT22;6344;49.932;8.308;2023-06-10T06:37:14;25.40;99.90
12557;DHT22;6344;49.932;8.308;2023-06-10T06:39:41;25.80;99.90
12557;DHT22;6344;49.932;8.308;2023-06-10T06:42:08;25.70;99.90
12557;DHT22;6344;49.932;8.308;2023-06-10T06:44:34;26.30;99.90
12557;DHT22;6344;49.932;8.308;2023-06-10T06:47:03;26.10;99.90
12557;DHT22;6344;49.932;8.308;2023-06-10T06:49:29;26.30;99.90
12557;DHT22;6344;49.932;8.308;2023-06-10T06:51:56;26.40;99.90
12557;DHT22;6344;49.932;8.308;2023-06-10T06:54:22;26.60;99.90
12557;DHT22;6344;49.932;8.308;2023-06-10T06:56:50;26.70;99.90
12557;DHT22;6344;49.932;8.308;2023-06-10T06:59:16;26.70;99.90
12557;DHT22;6344;49.932;8.308;2023-06-10T07:01:45;26.40;99.90
12557;DHT22;6344;49.932;8.308;2023-06-10T07:04:15;26.40;99.90
12557;DHT22;6344;49.932;8.308;2023-06-10T07:06:42;26.50;99.90
12557;DHT22;6344;49.932;8.308;2023-06-10T07:09:08;26.90;99.90
12557;DHT22;6344;49.932;8.308;2023-06-10T07:11:35;26.30;99.90
12557;DHT22;6344;49.932;8.308;2023-06-10T07:14:01;26.80;99.90
12557;DHT22;6344;49.932;8.308;2023-06-10T07:16:28;27.10;99.90
12557;DHT22;6344;49.932;8.308;2023-06-10T07:18:55;27.40;99.90
12557;DHT22;6344;49.932;8.308;2023-06-10T07:21:23;27.00;99.90
12557;DHT22;6344;49.932;8.308;2023-06-10T07:23:50;27.20;99.90
12557;DHT22;6344;49.932;8.308;2023-06-10T07:26:19;27.60;99.90
12557;DHT22;6344;49.932;8.308;2023-06-10T07:28:45;27.60;99.90
12557;DHT22;6344;49.932;8.308;2023-06-10T07:31:12;27.90;99.90
12557;DHT22;6344;49.932;8.308;2023-06-10T07:33:39;27.80;99.90
12557;DHT22;6344;49.932;8.308;2023-06-10T07:36:06;28.00;99.90
12557;DHT22;6344;49.932;8.308;2023-06-10T07:38:34;28.20;99.90
12557;DHT22;6344;49.932;8.308;2023-06-10T07:41:00;27.80;99.90
12557;DHT22;6344;49.932;8.308;2023-06-10T07:43:27;27.80;99.90
12557;DHT22;6344;49.932;8.308;2023-06-10T07:45:53;27.70;99.90
12557;DHT22;6344;49.932;8.308;2023-06-10T07:48:20;27.70;99.90
12557;DHT22;6344;49.932;8.308;2023-06-10T07:50:47;28.10;99.90
12557;DHT22;6344;49.932;8.308;2023-06-10T07:53:13;28.20;99.90
12557;DHT22;6344;49.932;8.308;2023-06-10T07:55:41;28.10;99.90
12557;DHT22;6344;49.932;8.308;2023-06-10T07:58:08;28.10;99.90
12557;DHT22;6344;49.932;8.308;2023-06-10T08:00:35;28.60;99.90
12557;DHT22;6344;49.932;8.308;2023-06-10T08:03:02;28.80;99.90
12557;DHT22;6344;49.932;8.308;2023-06-10T08:05:29;29.00;99.90
12557;DHT22;6344;49.932;8.308;2023-06-10T08:07:55;28.40;99.90
12557;DHT22;6344;49.932;8.308;2023-06-10T08:10:22;28.70;99.90
12557;DHT22;6344;49.932;8.308;2023-06-10T08:12:50;29.30;99.90
12557;DHT22;6344;49.932;8.308;2023-06-10T08:15:16;29.80;99.90
12557;DHT22;6344;49.932;8.308;2023-06-10T08:17:43;29.90;99.90
12557;DHT22;6344;49.932;8.308;2023-06-10T08:20:10;29.70;99.90
12557;DHT22;6344;49.932;8.308;2023-06-10T08:22:38;30.00;99.90
12557;DHT22;6344;49.932;8.308;2023-06-10T08:25:05;30.20;99.90
12557;DHT22;6344;49.932;8.308;2023-06-10T08:27:32;30.00;99.90
12557;DHT22;6344;49.932;8.308;2023-06-10T08:30:00;29.50;99.90
12557;DHT22;6344;49.932;8.308;2023-06-10T08:32:26;29.70;99.90
12557;DHT22;6344;49.932;8.308;2023-06-10T08:34:53;30.40;99.90
12557;DHT22;6344;49.932;8.308;2023-06-10T08:37:20;30.30;99.90
12557;DHT22;6344;49.932;8.308;2023-06-10T08:39:46;30.70;99.90
12557;DHT22;6344;49.932;8.308;2023-06-10T08:42:22;30.20;99.90
12557;DHT22;6344;49.932;8.308;2023-06-10T08:44:49;30.50;99.90
12557;DHT22;6344;49.932;8.308;2023-06-10T08:47:22;30.70;99.90
12557;DHT22;6344;49.932;8.308;2023-06-10T08:49:49;30.40;99.90
12557;DHT22;6344;49.932;8.308;2023-06-10T08:52:19;30.70;99.90
12557;DHT22;6344;49.932;8.308;2023-06-10T08:54:49;31.10;99.90
12557;DHT22;6344;49.932;8.308;2023-06-10T08:57:18;31.70;99.90
12557;DHT22;6344;49.932;8.308;2023-06-10T08:59:47;31.80;99.90
12557;DHT22;6344;49.932;8.308;2023-06-10T09:02:15;31.10;99.90
12557;DHT22;6344;49.932;8.308;2023-06-10T09:04:47;31.30;99.90
12557;DHT22;6344;49.932;8.308;2023-06-10T09:07:15;32.20;99.90
12557;DHT22;6344;49.932;8.308;2023-06-10T09:09:42;32.00;99.90
12557;DHT22;6344;49.932;8.308;2023-06-10T09:12:09;32.50;99.90
12557;DHT22;6344;49.932;8.308;2023-06-10T09:14:36;31.80;99.90
12557;DHT22;6344;49.932;8.308;2023-06-10T09:17:04;31.30;99.90
12557;DHT22;6344;49.932;8.308;2023-06-10T09:19:31;31.40;99.90
12557;DHT22;6344;49.932;8.308;2023-06-10T09:21:59;32.00;99.90
12557;DHT22;6344;49.932;8.308;2023-06-10T09:24:26;31.80;99.90
12557;DHT22;6344;49.932;8.308;2023-06-10T09:27:02;31.40;99.90
12557;DHT22;6344;49.932;8.308;2023-06-10T09:29:29;31.60;99.90
12557;DHT22;6344;49.932;8.308;2023-06-10T09:31:56;32.50;99.90
12557;DHT22;6344;49.932;8.308;2023-06-10T09:34:25;32.20;99.90
12557;DHT22;6344;49.932;8.308;2023-06-10T09:36:52;32.00;99.90
12557;DHT22;6344;49.932;8.308;2023-06-10T09:39:20;32.00;99.90
12557;DHT22;6344;49.932;8.308;2023-06-10T09:41:47;32.20;99.90
12557;DHT22;6344;49.932;8.308;2023-06-10T09:44:15;32.80;99.90
12557;DHT22;6344;49.932;8.308;2023-06-10T09:46:42;33.00;99.90
12557;DHT22;6344;49.932;8.308;2023-06-10T09:49:11;32.50;99.90
12557;DHT22;6344;49.932;8.308;2023-06-10T09:51:37;32.30;99.90
12557;DHT22;6344;49.932;8.308;2023-06-10T09:54:04;32.30;99.90
12557;DHT22;6344;49.932;8.308;2023-06-10T09:56:36;32.70;99.90
12557;DHT22;6344;49.932;8.308;2023-06-10T09:59:03;33.60;99.90
12557;DHT22;6344;49.932;8.308;2023-06-10T10:01:32;32.90;99.90
12557;DHT22;6344;49.932;8.308;2023-06-10T10:03:59;33.40;99.90
12557;DHT22;6344;49.932;8.308;2023-06-10T10:06:26;33.40;99.90
12557;DHT22;6344;49.932;8.308;2023-06-10T10:08:53;32.30;99.90
12557;DHT22;6344;49.932;8.308;2023-06-10T10:11:22;32.90;99.90
12557;DHT22;6344;49.932;8.308;2023-06-10T10:13:51;33.30;99.90
12557;DHT22;6344;49.932;8.308;2023-06-10T10:16:20;33.70;99.90
12557;DHT22;6344;49.932;8.308;2023-06-10T10:18:51;34.10;99.90
12557;DHT22;6344;49.932;8.308;2023-06-10T10:21:22;33.40;99.90
12557;DHT22;6344;49.932;8.308;2023-06-10T10:23:53;32.90;99.90
12557;DHT22;6344;49.932;8.308;2023-06-10T10:26:21;33.40;99.90
12557;DHT22;6344;49.932;8.308;2023-06-10T10:28:58;34.00;1.00
12557;DHT22;6344;49.932;8.308;2023-06-10T10:31:27;34.40;1.00
12557;DHT22;6344;49.932;8.308;2023-06-10T10:33:58;34.60;1.00
12557;DHT22;6344;49.932;8.308;2023-06-10T10:36:25;35.00;1.00
12557;DHT22;6344;49.932;8.308;2023-06-10T10:38:54;34.50;1.00
12557;DHT22;6344;49.932;8.308;2023-06-10T10:41:21;33.50;1.00
12557;DHT22;6344;49.932;8.308;2023-06-10T10:43:51;33.60;1.00
12557;DHT22;6344;49.932;8.308;2023-06-10T10:46:18;33.20;1.00
12557;DHT22;6344;49.932;8.308;2023-06-10T10:48:46;33.20;1.00
12557;DHT22;6344;49.932;8.308;2023-06-10T10:51:18;33.80;1.00
12557;DHT22;6344;49.932;8.308;2023-06-10T10:54:10;34.40;1.00
12557;DHT22;6344;49.932;8.308;2023-06-10T10:56:38;33.90;1.00
12557;DHT22;6344;49.932;8.308;2023-06-10T10:59:06;33.80;1.00
12557;DHT22;6344;49.932;8.308;2023-06-10T11:01:40;33.40;1.00
12557;DHT22;6344;49.932;8.308;2023-06-10T11:04:07;33.70;1.00
12557;DHT22;6344;49.932;8.308;2023-06-10T11:06:34;35.00;1.00
12557;DHT22;6344;49.932;8.308;2023-06-10T11:09:25;34.30;1.00
12557;DHT22;6344;49.932;8.308;2023-06-10T11:11:53;34.90;1.00
12557;DHT22;6344;49.932;8.308;2023-06-10T11:14:26;35.40;1.00
12557;DHT22;6344;49.932;8.308;2023-06-10T11:16:56;34.90;1.00
12557;DHT22;6344;49.932;8.308;2023-06-10T11:19:32;33.20;1.00
12557;DHT22;6344;49.932;8.308;2023-06-10T11:21:59;31.90;1.00
12557;DHT22;6344;49.932;8.308;2023-06-10T11:24:26;31.60;1.00
12557;DHT22;6344;49.932;8.308;2023-06-10T11:26:54;32.40;1.00
12557;DHT22;6344;49.932;8.308;2023-06-10T11:29:21;33.60;1.00
12557;DHT22;6344;49.932;8.308;2023-06-10T11:31:51;33.80;1.00
12557;DHT22;6344;49.932;8.308;2023-06-10T11:34:24;34.20;1.00
12557;DHT22;6344;49.932;8.308;2023-06-10T11:36:52;34.60;1.00
12557;DHT22;6344;49.932;8.308;2023-06-10T11:39:20;34.90;1.00
12557;DHT22;6344;49.932;8.308;2023-06-10T11:41:51;34.60;1.00
12557;DHT22;6344;49.932;8.308;2023-06-10T11:44:19;32.90;1.00
12557;DHT22;6344;49.932;8.308;2023-06-10T11:46:48;32.70;1.00
12557;DHT22;6344;49.932;8.308;2023-06-10T11:49:17;32.90;1.00
12557;DHT22;6344;49.932;8.308;2023-06-10T11:51:43;32.80;1.00
12557;DHT22;6344;49.932;8.308;2023-06-10T11:54:15;31.90;1.00
12557;DHT22;6344;49.932;8.308;2023-06-10T11:56:42;32.00;1.00
12557;DHT22;6344;49.932;8.308;2023-06-10T11:59:09;31.40;1.00
12557;DHT22;6344;49.932;8.308;2023-06-10T12:01:42;31.00;1.00
12557;DHT22;6344;49.932;8.308;2023-06-10T12:04:10;30.90;1.00
12557;DHT22;6344;49.932;8.308;2023-06-10T12:06:44;30.70;1.00
12557;DHT22;6344;49.932;8.308;2023-06-10T12:09:19;30.30;1.00
12557;DHT22;6344;49.932;8.308;2023-06-10T12:11:49;30.30;1.00
12557;DHT22;6344;49.932;8.308;2023-06-10T12:14:16;31.90;1.00
12557;DHT22;6344;49.932;8.308;2023-06-10T12:16:49;32.90;1.00
12557;DHT22;6344;49.932;8.308;2023-06-10T12:19:16;33.90;1.00
12557;DHT22;6344;49.932;8.308;2023-06-10T12:21:44;34.40;1.00
12557;DHT22;6344;49.932;8.308;2023-06-10T12:24:11;34.80;1.00
12557;DHT22;6344;49.932;8.308;2023-06-10T12:26:40;34.70;1.00
12557;DHT22;6344;49.932;8.308;2023-06-10T12:29:20;34.60;1.00
12557;DHT22;6344;49.932;8.308;2023-06-10T12:32:03;36.00;1.00
12557;DHT22;6344;49.932;8.308;2023-06-10T12:34:32;35.90;1.00
12557;DHT22;6344;49.932;8.308;2023-06-10T12:36:59;33.90;1.00
12557;DHT22;6344;49.932;8.308;2023-06-10T12:39:26;33.20;1.00
12557;DHT22;6344;49.932;8.308;2023-06-10T12:41:53;32.60;1.00
12557;DHT22;6344;49.932;8.308;2023-06-10T12:44:31;32.10;1.00
12557;DHT22;6344;49.932;8.308;2023-06-10T12:46:58;32.20;1.00
12557;DHT22;6344;49.932;8.308;2023-06-10T12:49:26;33.20;1.00
12557;DHT22;6344;49.932;8.308;2023-06-10T12:51:53;34.60;1.00
12557;DHT22;6344;49.932;8.308;2023-06-10T12:54:19;35.50;1.00
12557;DHT22;6344;49.932;8.308;2023-06-10T12:56:46;36.00;1.00
12557;DHT22;6344;49.932;8.308;2023-06-10T12:59:13;35.50;1.00
12557;DHT22;6344;49.932;8.308;2023-06-10T13:01:40;33.50;1.00
12557;DHT22;6344;49.932;8.308;2023-06-10T13:04:06;32.90;1.00
12557;DHT22;6344;49.932;8.308;2023-06-10T13:06:34;31.90;1.00
12557;DHT22;6344;49.932;8.308;2023-06-10T13:09:05;31.70;1.00
12557;DHT22;6344;49.932;8.308;2023-06-10T13:11:33;31.30;1.00
12557;DHT22;6344;49.932;8.308;2023-06-10T13:14:00;31.40;1.00
12557;DHT22;6344;49.932;8.308;2023-06-10T13:16:28;31.80;1.00
12557;DHT22;6344;49.932;8.308;2023-06-10T13:18:55;33.20;1.00
12557;DHT22;6344;49.932;8.308;2023-06-10T13:21:22;34.40;1.00
12557;DHT22;6344;49.932;8.308;2023-06-10T13:23:50;35.80;1.00
12557;DHT22;6344;49.932;8.308;2023-06-10T13:26:17;37.00;1.00
12557;DHT22;6344;49.932;8.308;2023-06-10T13:28:44;37.20;1.00
12557;DHT22;6344;49.932;8.308;2023-06-10T13:31:11;37.60;1.00
12557;DHT22;6344;49.932;8.308;2023-06-10T13:33:37;37.20;1.00
12557;DHT22;6344;49.932;8.308;2023-06-10T13:36:05;36.40;1.00
12557;DHT22;6344;49.932;8.308;2023-06-10T13:38:31;35.20;1.00
12557;DHT22;6344;49.932;8.308;2023-06-10T13:40:59;34.10;1.00
12557;DHT22;6344;49.932;8.308;2023-06-10T13:43:26;33.30;1.00
12557;DHT22;6344;49.932;8.308;2023-06-10T13:45:54;34.60;1.00
12557;DHT22;6344;49.932;8.308;2023-06-10T13:48:20;35.90;1.00
12557;DHT22;6344;49.932;8.308;2023-06-10T13:50:47;37.50;1.00
12557;DHT22;6344;49.932;8.308;2023-06-10T13:53:14;37.90;1.00
12557;DHT22;6344;49.932;8.308;2023-06-10T13:55:41;36.20;1.00
12557;DHT22;6344;49.932;8.308;2023-06-10T13:58:09;33.60;1.00
12557;DHT22;6344;49.932;8.308;2023-06-10T14:00:35;32.60;1.00
12557;DHT22;6344;49.932;8.308;2023-06-10T14:03:02;32.20;1.00
12557;DHT22;6344;49.932;8.308;2023-06-10T14:05:29;31.50;1.00
12557;DHT22;6344;49.932;8.308;2023-06-10T14:07:56;31.70;1.00
12557;DHT22;6344;49.932;8.308;2023-06-10T14:10:22;33.00;1.00
12557;DHT22;6344;49.932;8.308;2023-06-10T14:12:49;33.70;1.00
12557;DHT22;6344;49.932;8.308;2023-06-10T14:15:18;35.20;1.00
12557;DHT22;6344;49.932;8.308;2023-06-10T14:17:44;35.80;1.00
12557;DHT22;6344;49.932;8.308;2023-06-10T14:20:11;36.10;1.00
12557;DHT22;6344;49.932;8.308;2023-06-10T14:22:38;37.30;1.00
12557;DHT22;6344;49.932;8.308;2023-06-10T14:25:06;38.20;1.00
12557;DHT22;6344;49.932;8.308;2023-06-10T14:27:32;37.50;1.00
12557;DHT22;6344;49.932;8.308;2023-06-10T14:29:59;35.40;1.00
12557;DHT22;6344;49.932;8.308;2023-06-10T14:32:27;34.30;1.00
12557;DHT22;6344;49.932;8.308;2023-06-10T14:34:54;33.50;1.00
12557;DHT22;6344;49.932;8.308;2023-06-10T14:37:20;32.70;1.00
12557;DHT22;6344;49.932;8.308;2023-06-10T14:39:47;32.30;1.00
12557;DHT22;6344;49.932;8.308;2023-06-10T14:42:14;31.90;1.00
12557;DHT22;6344;49.932;8.308;2023-06-10T14:44:40;32.50;1.00
12557;DHT22;6344;49.932;8.308;2023-06-10T14:47:07;33.20;1.00
12557;DHT22;6344;49.932;8.308;2023-06-10T14:49:35;34.20;1.00
12557;DHT22;6344;49.932;8.308;2023-06-10T14:52:02;34.50;1.00
12557;DHT22;6344;49.932;8.308;2023-06-10T14:54:28;34.30;1.00
12557;DHT22;6344;49.932;8.308;2023-06-10T14:56:55;35.10;1.00
12557;DHT22;6344;49.932;8.308;2023-06-10T14:59:22;35.60;1.00
12557;DHT22;6344;49.932;8.308;2023-06-10T15:01:48;35.80;1.00
12557;DHT22;6344;49.932;8.308;2023-06-10T15:04:15;35.70;1.00
12557;DHT22;6344;49.932;8.308;2023-06-10T15:06:43;35.00;1.00
12557;DHT22;6344;49.932;8.308;2023-06-10T15:09:10;35.20;1.00
12557;DHT22;6344;49.932;8.308;2023-06-10T15:11:36;35.00;1.00
12557;DHT22;6344;49.932;8.308;2023-06-10T15:14:03;35.50;1.00
12557;DHT22;6344;49.932;8.308;2023-06-10T15:16:30;35.40;1.00
12557;DHT22;6344;49.932;8.308;2023-06-10T15:18:57;35.70;1.00
12557;DHT22;6344;49.932;8.308;2023-06-10T15:21:24;35.70;1.00
12557;DHT22;6344;49.932;8.308;2023-06-10T15:23:52;35.10;1.00
12557;DHT22;6344;49.932;8.308;2023-06-10T15:26:18;34.90;1.00
12557;DHT22;6344;49.932;8.308;2023-06-10T15:28:46;35.10;1.00
12557;DHT22;6344;49.932;8.308;2023-06-10T15:31:12;35.70;1.00
12557;DHT22;6344;49.932;8.308;2023-06-10T15:33:39;36.50;1.00
12557;DHT22;6344;49.932;8.308;2023-06-10T15:36:05;36.90;1.00
12557;DHT22;6344;49.932;8.308;2023-06-10T15:38:32;36.00;1.00
12557;DHT22;6344;49.932;8.308;2023-06-10T15:41:00;36.30;1.00
12557;DHT22;6344;49.932;8.308;2023-06-10T15:43:27;37.00;1.00
12557;DHT22;6344;49.932;8.308;2023-06-10T15:45:53;36.50;1.00
12557;DHT22;6344;49.932;8.308;2023-06-10T15:48:20;35.60;1.00
12557;DHT22;6344;49.932;8.308;2023-06-10T15:50:47;34.60;1.00
12557;DHT22;6344;49.932;8.308;2023-06-10T15:53:13;34.00;1.00
12557;DHT22;6344;49.932;8.308;2023-06-10T15:55:40;34.20;1.00
12557;DHT22;6344;49.932;8.308;2023-06-10T15:58:08;33.90;1.00